LGX216 LIEO-LIQL
Flight info
| Callsign | LGX216 |
|---|---|
| Flight time | 0h 46m |
| Altitude | 28000 |
| Route | BATOX DCT MAMAR DCT ROTIR L50 ELB VFR |
| Aircraft | C525/L-SDFGRWY/S |
Departure
| Time | 2026-04-28 14:16 |
|---|---|
| Airport | Olbia Costa Smeralda Airport (LIEO) |
Arrival
| Time | 2026-04-28 15:02 |
|---|---|
| Airport | Lucca-Tassignano Airport (LIQL) |
| Time | Latitude | Longitude | Altitude | Speed | Heading |
|---|---|---|---|---|---|
| 2026-04-28 14:06 | 40.89578 | 9.50642 | 47 ft | 0 kts | 87° |
| 2026-04-28 14:12 | 40.89579 | 9.50644 | 47 ft | 1 kts | 87° |
| 2026-04-28 14:12 | 40.89593 | 9.50657 | 47 ft | 5 kts | 322° |
| 2026-04-28 14:13 | 40.89605 | 9.50584 | 47 ft | 10 kts | 249° |
| 2026-04-28 14:13 | 40.89570 | 9.50512 | 47 ft | 9 kts | 234° |
| 2026-04-28 14:13 | 40.89534 | 9.50421 | 47 ft | 10 kts | 245° |
| 2026-04-28 14:13 | 40.89502 | 9.50339 | 47 ft | 9 kts | 238° |
| 2026-04-28 14:14 | 40.89447 | 9.50330 | 47 ft | 10 kts | 144° |
| 2026-04-28 14:14 | 40.89389 | 9.50380 | 47 ft | 10 kts | 154° |
| 2026-04-28 14:14 | 40.89320 | 9.50435 | 47 ft | 12 kts | 143° |
| 2026-04-28 14:14 | 40.89277 | 9.50512 | 47 ft | 9 kts | 104° |
| 2026-04-28 14:15 | 40.89268 | 9.50590 | 47 ft | 8 kts | 93° |
| 2026-04-28 14:15 | 40.89293 | 9.50667 | 47 ft | 9 kts | 55° |
| 2026-04-28 14:15 | 40.89368 | 9.50809 | 47 ft | 40 kts | 57° |
| 2026-04-28 14:15 | 40.89652 | 9.51353 | 47 ft | 102 kts | 55° |
| 2026-04-28 14:16 | 40.90100 | 9.52212 | 400 ft | 116 kts | 60° |
| 2026-04-28 14:16 | 40.90541 | 9.53062 | 1026 ft | 112 kts | 59° |
| 2026-04-28 14:16 | 40.90984 | 9.53899 | 1557 ft | 114 kts | 59° |
| 2026-04-28 14:16 | 40.91436 | 9.54749 | 2077 ft | 118 kts | 58° |
| 2026-04-28 14:17 | 40.91991 | 9.55799 | 2210 ft | 158 kts | 59° |
| 2026-04-28 14:17 | 40.92655 | 9.57046 | 2711 ft | 171 kts | 58° |
| 2026-04-28 14:17 | 40.93343 | 9.58338 | 3318 ft | 177 kts | 58° |
| 2026-04-28 14:17 | 40.94051 | 9.59669 | 3938 ft | 181 kts | 58° |
| 2026-04-28 14:18 | 40.94772 | 9.61024 | 4576 ft | 184 kts | 57° |
| 2026-04-28 14:18 | 40.95507 | 9.62408 | 5194 ft | 187 kts | 57° |
| 2026-04-28 14:18 | 40.96263 | 9.63833 | 5797 ft | 191 kts | 56° |
| 2026-04-28 14:18 | 40.97023 | 9.65265 | 6405 ft | 194 kts | 56° |
| 2026-04-28 14:19 | 40.97797 | 9.66724 | 7020 ft | 196 kts | 56° |
| 2026-04-28 14:19 | 40.98576 | 9.68193 | 7626 ft | 198 kts | 56° |
| 2026-04-28 14:19 | 40.99344 | 9.69722 | 8197 ft | 201 kts | 58° |
| 2026-04-28 14:19 | 41.00089 | 9.71286 | 8767 ft | 204 kts | 59° |
| 2026-04-28 14:20 | 41.00844 | 9.72880 | 9340 ft | 206 kts | 59° |
| 2026-04-28 14:20 | 41.01608 | 9.74484 | 9931 ft | 208 kts | 58° |
| 2026-04-28 14:20 | 41.02369 | 9.76073 | 10499 ft | 208 kts | 58° |
| 2026-04-28 14:20 | 41.03141 | 9.77682 | 11049 ft | 208 kts | 58° |
| 2026-04-28 14:21 | 41.03920 | 9.79301 | 11542 ft | 211 kts | 58° |
| 2026-04-28 14:21 | 41.04702 | 9.80930 | 12110 ft | 210 kts | 58° |
| 2026-04-28 14:21 | 41.05487 | 9.82564 | 12597 ft | 213 kts | 58° |
| 2026-04-28 14:21 | 41.06275 | 9.84206 | 13145 ft | 212 kts | 58° |
| 2026-04-28 14:22 | 41.07077 | 9.85878 | 13621 ft | 214 kts | 58° |
| 2026-04-28 14:22 | 41.07872 | 9.87537 | 14100 ft | 215 kts | 58° |
| 2026-04-28 14:22 | 41.08671 | 9.89204 | 14594 ft | 217 kts | 58° |
| 2026-04-28 14:22 | 41.09474 | 9.90881 | 15060 ft | 218 kts | 58° |
| 2026-04-28 14:23 | 41.10282 | 9.92570 | 15509 ft | 218 kts | 58° |
| 2026-04-28 14:23 | 41.11095 | 9.94270 | 15952 ft | 220 kts | 58° |
| 2026-04-28 14:23 | 41.11916 | 9.95987 | 16391 ft | 221 kts | 58° |
| 2026-04-28 14:23 | 41.12738 | 9.97708 | 16848 ft | 221 kts | 58° |
| 2026-04-28 14:24 | 41.13554 | 9.99416 | 17251 ft | 223 kts | 58° |
| 2026-04-28 14:24 | 41.14386 | 10.01159 | 17673 ft | 224 kts | 58° |
| 2026-04-28 14:24 | 41.15221 | 10.02912 | 18077 ft | 225 kts | 58° |
| 2026-04-28 14:24 | 41.16050 | 10.04649 | 18481 ft | 226 kts | 58° |
| 2026-04-28 14:25 | 41.16893 | 10.06419 | 18879 ft | 227 kts | 58° |
| 2026-04-28 14:25 | 41.17728 | 10.08174 | 19254 ft | 228 kts | 58° |
| 2026-04-28 14:25 | 41.18581 | 10.09966 | 19637 ft | 229 kts | 58° |
| 2026-04-28 14:25 | 41.19432 | 10.11755 | 19975 ft | 232 kts | 57° |
| 2026-04-28 14:26 | 41.20287 | 10.13554 | 20336 ft | 233 kts | 57° |
| 2026-04-28 14:26 | 41.21156 | 10.15367 | 20693 ft | 234 kts | 56° |
| 2026-04-28 14:26 | 41.22103 | 10.17162 | 21040 ft | 236 kts | 52° |
| 2026-04-28 14:26 | 41.23111 | 10.18861 | 21371 ft | 238 kts | 49° |
| 2026-04-28 14:27 | 41.24200 | 10.20524 | 21713 ft | 239 kts | 46° |
| 2026-04-28 14:27 | 41.25313 | 10.22158 | 22043 ft | 240 kts | 46° |
| 2026-04-28 14:27 | 41.26429 | 10.23801 | 22381 ft | 241 kts | 46° |
| 2026-04-28 14:27 | 41.27542 | 10.25473 | 22701 ft | 243 kts | 47° |
| 2026-04-28 14:28 | 41.28644 | 10.27169 | 23028 ft | 244 kts | 47° |
| 2026-04-28 14:28 | 41.29744 | 10.28892 | 23350 ft | 245 kts | 47° |
| 2026-04-28 14:28 | 41.30842 | 10.30632 | 23655 ft | 247 kts | 47° |
| 2026-04-28 14:28 | 41.31932 | 10.32365 | 23957 ft | 248 kts | 47° |
| 2026-04-28 14:29 | 41.33043 | 10.34129 | 24266 ft | 249 kts | 47° |
| 2026-04-28 14:29 | 41.34163 | 10.35903 | 24568 ft | 250 kts | 47° |
| 2026-04-28 14:29 | 41.35286 | 10.37681 | 24870 ft | 251 kts | 47° |
| 2026-04-28 14:29 | 41.36407 | 10.39451 | 25145 ft | 253 kts | 47° |
| 2026-04-28 14:30 | 41.37548 | 10.41252 | 25438 ft | 254 kts | 47° |
| 2026-04-28 14:30 | 41.38713 | 10.43018 | 25721 ft | 254 kts | 42° |
| 2026-04-28 14:30 | 41.40147 | 10.44363 | 25945 ft | 253 kts | 21° |
| 2026-04-28 14:30 | 41.41855 | 10.44799 | 26021 ft | 257 kts | 357° |
| 2026-04-28 14:31 | 41.43656 | 10.44505 | 26026 ft | 267 kts | 346° |
| 2026-04-28 14:31 | 41.45505 | 10.43917 | 26026 ft | 277 kts | 344° |
| 2026-04-28 14:31 | 41.47432 | 10.43345 | 26026 ft | 287 kts | 347° |
| 2026-04-28 14:31 | 41.49432 | 10.42943 | 26026 ft | 296 kts | 351° |
| 2026-04-28 14:32 | 41.51498 | 10.42731 | 26024 ft | 304 kts | 355° |
| 2026-04-28 14:32 | 41.53651 | 10.42658 | 26024 ft | 312 kts | 357° |
| 2026-04-28 14:32 | 41.55821 | 10.42661 | 26025 ft | 318 kts | 358° |
| 2026-04-28 14:32 | 41.58068 | 10.42680 | 26026 ft | 323 kts | 358° |
| 2026-04-28 14:33 | 41.60315 | 10.42684 | 26024 ft | 328 kts | 358° |
| 2026-04-28 14:33 | 41.62631 | 10.42659 | 26025 ft | 332 kts | 357° |
| 2026-04-28 14:33 | 41.64941 | 10.42610 | 26025 ft | 336 kts | 356° |
| 2026-04-28 14:33 | 41.67280 | 10.42543 | 26023 ft | 339 kts | 356° |
| 2026-04-28 14:34 | 41.72050 | 10.42393 | 26022 ft | 345 kts | 356° |
| 2026-04-28 14:34 | 41.74443 | 10.42320 | 26023 ft | 347 kts | 356° |
| 2026-04-28 14:34 | 41.76071 | 10.42273 | 26024 ft | 348 kts | 356° |
| 2026-04-28 14:35 | 41.79308 | 10.42183 | 26024 ft | 350 kts | 356° |
| 2026-04-28 14:35 | 41.81746 | 10.42117 | 26026 ft | 352 kts | 356° |
| 2026-04-28 14:35 | 41.84199 | 10.42051 | 26026 ft | 353 kts | 356° |
| 2026-04-28 14:35 | 41.86630 | 10.41985 | 26028 ft | 354 kts | 356° |
| 2026-04-28 14:36 | 41.89097 | 10.41918 | 26028 ft | 354 kts | 356° |
| 2026-04-28 14:36 | 41.91573 | 10.41850 | 26028 ft | 355 kts | 356° |
| 2026-04-28 14:36 | 41.94052 | 10.41782 | 26031 ft | 356 kts | 356° |
| 2026-04-28 14:36 | 41.96505 | 10.41714 | 26030 ft | 356 kts | 356° |
| 2026-04-28 14:37 | 41.98996 | 10.41645 | 26029 ft | 357 kts | 356° |
| 2026-04-28 14:37 | 42.01459 | 10.41577 | 26030 ft | 357 kts | 356° |
| 2026-04-28 14:37 | 42.03955 | 10.41507 | 26030 ft | 358 kts | 356° |
| 2026-04-28 14:37 | 42.06460 | 10.41438 | 26029 ft | 358 kts | 356° |
| 2026-04-28 14:38 | 42.08932 | 10.41370 | 26027 ft | 358 kts | 356° |
| 2026-04-28 14:38 | 42.11412 | 10.41301 | 26029 ft | 359 kts | 356° |
| 2026-04-28 14:38 | 42.13929 | 10.41231 | 26029 ft | 359 kts | 356° |
| 2026-04-28 14:38 | 42.16417 | 10.41162 | 26027 ft | 359 kts | 356° |
| 2026-04-28 14:39 | 42.18904 | 10.41093 | 26026 ft | 359 kts | 356° |
| 2026-04-28 14:39 | 42.21394 | 10.41023 | 26026 ft | 360 kts | 356° |
| 2026-04-28 14:39 | 42.23913 | 10.40953 | 26026 ft | 360 kts | 356° |
| 2026-04-28 14:39 | 42.26404 | 10.40884 | 26026 ft | 360 kts | 356° |
| 2026-04-28 14:40 | 42.28893 | 10.40814 | 26021 ft | 360 kts | 356° |
| 2026-04-28 14:40 | 42.29748 | 10.40790 | 26024 ft | 360 kts | 356° |
| 2026-04-28 14:40 | 42.33911 | 10.40674 | 26023 ft | 360 kts | 356° |
| 2026-04-28 14:40 | 42.36406 | 10.40604 | 26024 ft | 360 kts | 356° |
| 2026-04-28 14:41 | 42.38931 | 10.40533 | 26021 ft | 360 kts | 356° |
| 2026-04-28 14:41 | 42.41433 | 10.40463 | 26022 ft | 361 kts | 356° |
| 2026-04-28 14:41 | 42.43933 | 10.40393 | 26021 ft | 361 kts | 356° |
| 2026-04-28 14:41 | 42.46445 | 10.40323 | 26020 ft | 361 kts | 356° |
| 2026-04-28 14:42 | 42.48957 | 10.40252 | 26019 ft | 361 kts | 356° |
| 2026-04-28 14:42 | 42.51438 | 10.40183 | 26016 ft | 361 kts | 356° |
| 2026-04-28 14:42 | 42.53955 | 10.40112 | 26019 ft | 361 kts | 355° |
| 2026-04-28 14:42 | 42.56474 | 10.40041 | 26018 ft | 361 kts | 355° |
| 2026-04-28 14:43 | 42.58992 | 10.39970 | 26017 ft | 361 kts | 355° |
| 2026-04-28 14:43 | 42.61483 | 10.39900 | 26018 ft | 361 kts | 355° |
| 2026-04-28 14:43 | 42.64018 | 10.39827 | 25635 ft | 368 kts | 355° |
| 2026-04-28 14:43 | 42.66569 | 10.39753 | 25206 ft | 372 kts | 355° |
| 2026-04-28 14:44 | 42.69173 | 10.39678 | 24763 ft | 374 kts | 355° |
| 2026-04-28 14:44 | 42.71795 | 10.39607 | 24264 ft | 376 kts | 356° |
| 2026-04-28 14:44 | 42.74369 | 10.39652 | 23746 ft | 376 kts | 359° |
| 2026-04-28 14:44 | 42.76985 | 10.40002 | 23223 ft | 377 kts | 5° |
| 2026-04-28 14:45 | 42.79551 | 10.40657 | 22703 ft | 377 kts | 9° |
| 2026-04-28 14:45 | 42.82088 | 10.41449 | 22182 ft | 376 kts | 10° |
| 2026-04-28 14:45 | 42.84628 | 10.42265 | 21665 ft | 375 kts | 10° |
| 2026-04-28 14:45 | 42.86325 | 10.42787 | 21321 ft | 374 kts | 9° |
| 2026-04-28 14:46 | 42.89706 | 10.43744 | 20647 ft | 373 kts | 8° |
| 2026-04-28 14:46 | 42.92255 | 10.44402 | 20121 ft | 372 kts | 8° |
| 2026-04-28 14:46 | 42.94778 | 10.45021 | 19626 ft | 371 kts | 7° |
| 2026-04-28 14:46 | 42.97324 | 10.45634 | 19117 ft | 370 kts | 7° |
| 2026-04-28 14:47 | 42.99823 | 10.46236 | 18611 ft | 365 kts | 7° |
| 2026-04-28 14:47 | 43.02248 | 10.46830 | 18105 ft | 346 kts | 8° |
| 2026-04-28 14:47 | 43.04583 | 10.47411 | 17586 ft | 331 kts | 8° |
| 2026-04-28 14:47 | 43.06791 | 10.47964 | 17059 ft | 319 kts | 8° |
| 2026-04-28 14:48 | 43.08936 | 10.48502 | 16563 ft | 310 kts | 8° |
| 2026-04-28 14:48 | 43.11029 | 10.49027 | 16072 ft | 303 kts | 8° |
| 2026-04-28 14:48 | 43.13059 | 10.49536 | 15565 ft | 297 kts | 8° |
| 2026-04-28 14:48 | 43.15079 | 10.50042 | 15062 ft | 291 kts | 8° |
| 2026-04-28 14:49 | 43.17034 | 10.50531 | 14567 ft | 287 kts | 8° |
| 2026-04-28 14:49 | 43.18996 | 10.51022 | 14069 ft | 284 kts | 8° |
| 2026-04-28 14:49 | 43.20916 | 10.51504 | 13575 ft | 281 kts | 8° |
| 2026-04-28 14:49 | 43.22827 | 10.51983 | 13084 ft | 278 kts | 8° |
| 2026-04-28 14:50 | 43.24721 | 10.52459 | 12591 ft | 276 kts | 8° |
| 2026-04-28 14:50 | 43.26588 | 10.52928 | 12101 ft | 274 kts | 9° |
| 2026-04-28 14:50 | 43.28461 | 10.53400 | 11617 ft | 272 kts | 9° |
| 2026-04-28 14:50 | 43.30304 | 10.53864 | 11124 ft | 271 kts | 9° |
| 2026-04-28 14:51 | 43.32159 | 10.54331 | 10631 ft | 270 kts | 9° |
| 2026-04-28 14:51 | 43.33994 | 10.54794 | 10137 ft | 268 kts | 9° |
| 2026-04-28 14:51 | 43.35820 | 10.55255 | 9654 ft | 267 kts | 10° |
| 2026-04-28 14:51 | 43.37626 | 10.55712 | 9184 ft | 266 kts | 10° |
| 2026-04-28 14:52 | 43.39435 | 10.56169 | 8697 ft | 264 kts | 10° |
| 2026-04-28 14:52 | 43.41249 | 10.56628 | 8197 ft | 263 kts | 10° |
| 2026-04-28 14:52 | 43.43021 | 10.57076 | 7707 ft | 262 kts | 10° |
| 2026-04-28 14:52 | 43.44804 | 10.57527 | 7269 ft | 258 kts | 10° |
| 2026-04-28 14:53 | 43.46564 | 10.57973 | 6898 ft | 253 kts | 10° |
| 2026-04-28 14:53 | 43.48274 | 10.58407 | 6528 ft | 250 kts | 10° |
| 2026-04-28 14:53 | 43.49979 | 10.58839 | 6161 ft | 247 kts | 10° |
| 2026-04-28 14:53 | 43.51644 | 10.59262 | 5806 ft | 245 kts | 10° |
| 2026-04-28 14:54 | 43.53307 | 10.59684 | 5443 ft | 243 kts | 10° |
| 2026-04-28 14:54 | 43.54982 | 10.60110 | 5068 ft | 241 kts | 10° |
| 2026-04-28 14:54 | 43.56604 | 10.60523 | 4715 ft | 240 kts | 10° |
| 2026-04-28 14:54 | 43.58251 | 10.60941 | 4350 ft | 239 kts | 10° |
| 2026-04-28 14:55 | 43.59867 | 10.61353 | 4043 ft | 235 kts | 10° |
| 2026-04-28 14:55 | 43.61448 | 10.61755 | 3984 ft | 228 kts | 10° |
| 2026-04-28 14:55 | 43.62993 | 10.62149 | 3986 ft | 223 kts | 10° |
| 2026-04-28 14:55 | 43.64508 | 10.62535 | 3983 ft | 218 kts | 11° |
| 2026-04-28 14:56 | 43.65993 | 10.62924 | 3844 ft | 217 kts | 12° |
| 2026-04-28 14:56 | 43.67450 | 10.63395 | 3599 ft | 212 kts | 15° |
| 2026-04-28 14:56 | 43.68842 | 10.63958 | 3350 ft | 207 kts | 17° |
| 2026-04-28 14:56 | 43.70197 | 10.64538 | 3102 ft | 203 kts | 17° |
| 2026-04-28 14:57 | 43.71549 | 10.65110 | 2853 ft | 200 kts | 17° |
| 2026-04-28 14:57 | 43.72430 | 10.65475 | 2688 ft | 198 kts | 17° |
| 2026-04-28 14:57 | 43.74160 | 10.66179 | 2383 ft | 194 kts | 17° |
| 2026-04-28 14:57 | 43.75456 | 10.66702 | 2159 ft | 191 kts | 17° |
| 2026-04-28 14:58 | 43.76643 | 10.67180 | 1991 ft | 164 kts | 17° |
| 2026-04-28 14:58 | 43.77676 | 10.67595 | 1798 ft | 139 kts | 17° |
| 2026-04-28 14:58 | 43.78554 | 10.67948 | 1548 ft | 124 kts | 17° |
| 2026-04-28 14:58 | 43.79348 | 10.68268 | 1300 ft | 117 kts | 17° |
| 2026-04-28 14:59 | 43.80130 | 10.68496 | 1047 ft | 113 kts | 351° |
| 2026-04-28 14:59 | 43.80837 | 10.68196 | 933 ft | 100 kts | 330° |
| 2026-04-28 14:59 | 43.81284 | 10.67577 | 876 ft | 91 kts | 281° |
| 2026-04-28 14:59 | 43.81494 | 10.66755 | 1093 ft | 97 kts | 278° |
| 2026-04-28 15:00 | 43.81609 | 10.65886 | 1429 ft | 84 kts | 278° |
| 2026-04-28 15:00 | 43.81739 | 10.64997 | 1195 ft | 104 kts | 278° |
| 2026-04-28 15:00 | 43.81873 | 10.63943 | 844 ft | 111 kts | 277° |
| 2026-04-28 15:00 | 43.81992 | 10.62948 | 717 ft | 101 kts | 277° |
| 2026-04-28 15:01 | 43.82102 | 10.62005 | 598 ft | 97 kts | 277° |
| 2026-04-28 15:01 | 43.82207 | 10.61092 | 478 ft | 98 kts | 277° |
| 2026-04-28 15:01 | 43.82314 | 10.60158 | 354 ft | 98 kts | 277° |
| 2026-04-28 15:01 | 43.82421 | 10.59221 | 223 ft | 98 kts | 277° |
| 2026-04-28 15:02 | 43.82526 | 10.58294 | 68 ft | 92 kts | 278° |
| 2026-04-28 15:02 | 43.82596 | 10.57689 | 63 ft | 20 kts | 280° |
| 2026-04-28 15:02 | 43.82592 | 10.57604 | 63 ft | 6 kts | 238° |
| 2026-04-28 15:02 | 43.82566 | 10.57573 | 63 ft | 4 kts | 137° |
| 2026-04-28 15:03 | 43.82556 | 10.57629 | 63 ft | 7 kts | 95° |
| 2026-04-28 15:03 | 43.82540 | 10.57669 | 63 ft | 1 kts | 142° |
| 2026-04-28 15:03 | 43.82537 | 10.57672 | 63 ft | 0 kts | 143° |